sensor_id;sensor_type;location;lat;lon;timestamp;pressure;altitude;pressure_sealevel;temperature;humidity
7748;BME280;3918;42.564;23.164;2023-04-15T04:01:42;-11650.84;;;-142.29;100.00
7748;BME280;3918;42.564;23.164;2023-04-15T04:04:08;-11650.84;;;-142.29;100.00
7748;BME280;3918;42.564;23.164;2023-04-15T04:06:35;-11650.84;;;-142.29;100.00
7748;BME280;3918;42.564;23.164;2023-04-15T04:09:02;-11650.84;;;-142.29;100.00
7748;BME280;3918;42.564;23.164;2023-04-15T04:11:29;-11650.84;;;-142.29;100.00
7748;BME280;3918;42.564;23.164;2023-04-15T04:13:57;-11650.84;;;-142.29;100.00
7748;BME280;3918;42.564;23.164;2023-04-15T04:16:24;-11650.84;;;-142.29;100.00
7748;BME280;3918;42.564;23.164;2023-04-15T04:18:52;-11650.84;;;-142.29;100.00
7748;BME280;3918;42.564;23.164;2023-04-15T04:21:18;-11650.84;;;-142.29;100.00
7748;BME280;3918;42.564;23.164;2023-04-15T04:23:46;-11650.84;;;-142.29;100.00
7748;BME280;3918;42.564;23.164;2023-04-15T04:26:12;-11650.84;;;-142.29;100.00
7748;BME280;3918;42.564;23.164;2023-04-15T04:28:39;-11650.84;;;-142.29;100.00
7748;BME280;3918;42.564;23.164;2023-04-15T04:31:06;-11650.84;;;-142.29;100.00
7748;BME280;3918;42.564;23.164;2023-04-15T04:33:33;-11650.84;;;-142.29;100.00
7748;BME280;3918;42.564;23.164;2023-04-15T04:36:01;-11650.84;;;-142.29;100.00
7748;BME280;3918;42.564;23.164;2023-04-15T04:38:28;-11650.84;;;-142.29;100.00
7748;BME280;3918;42.564;23.164;2023-04-15T04:40:55;-11650.84;;;-142.29;100.00
7748;BME280;3918;42.564;23.164;2023-04-15T04:43:21;-11650.84;;;-142.29;100.00
7748;BME280;3918;42.564;23.164;2023-04-15T04:45:48;-11650.84;;;-142.29;100.00
7748;BME280;3918;42.564;23.164;2023-04-15T04:48:15;-11650.84;;;-142.29;100.00
7748;BME280;3918;42.564;23.164;2023-04-15T04:50:42;-11650.84;;;-142.29;100.00
7748;BME280;3918;42.564;23.164;2023-04-15T04:53:11;-11650.84;;;-142.29;100.00
7748;BME280;3918;42.564;23.164;2023-04-15T04:55:37;-11650.84;;;-142.29;96.25
7748;BME280;3918;42.564;23.164;2023-04-15T04:58:04;-11650.84;;;-142.29;86.19
7748;BME280;3918;42.564;23.164;2023-04-15T05:00:31;-11650.84;;;-142.29;81.24
7748;BME280;3918;42.564;23.164;2023-04-15T05:02:58;-11650.84;;;-142.29;66.75
7748;BME280;3918;42.564;23.164;2023-04-15T05:05:25;-11650.84;;;-142.29;52.51
7748;BME280;3918;42.564;23.164;2023-04-15T05:07:52;-11650.84;;;-142.29;50.53
7748;BME280;3918;42.564;23.164;2023-04-15T05:10:20;-11650.84;;;-142.29;47.58
7748;BME280;3918;42.564;23.164;2023-04-15T05:12:47;-11650.84;;;-142.29;46.40
7748;BME280;3918;42.564;23.164;2023-04-15T05:15:13;-11650.84;;;-142.29;44.64
7748;BME280;3918;42.564;23.164;2023-04-15T05:17:40;-11650.84;;;-142.29;44.28
7748;BME280;3918;42.564;23.164;2023-04-15T05:20:07;-11650.84;;;-142.29;43.38
7748;BME280;3918;42.564;23.164;2023-04-15T05:22:34;-11650.84;;;-142.29;43.11
7748;BME280;3918;42.564;23.164;2023-04-15T05:25:02;-11650.84;;;-142.29;43.62
7748;BME280;3918;42.564;23.164;2023-04-15T05:27:30;-11650.84;;;-142.29;42.69
7748;BME280;3918;42.564;23.164;2023-04-15T05:29:57;-11650.84;;;-142.29;42.04
7748;BME280;3918;42.564;23.164;2023-04-15T05:32:24;-11650.84;;;-142.29;42.55
7748;BME280;3918;42.564;23.164;2023-04-15T05:34:50;-11650.84;;;-142.29;43.76
7748;BME280;3918;42.564;23.164;2023-04-15T05:37:17;-11650.84;;;-142.29;43.73
7748;BME280;3918;42.564;23.164;2023-04-15T05:39:45;-11650.84;;;-142.29;43.42
7748;BME280;3918;42.564;23.164;2023-04-15T05:42:12;-11650.84;;;-142.29;43.05
7748;BME280;3918;42.564;23.164;2023-04-15T05:44:40;-11650.84;;;-142.29;41.78
7748;BME280;3918;42.564;23.164;2023-04-15T05:47:07;-11650.84;;;-142.29;41.54
7748;BME280;3918;42.564;23.164;2023-04-15T05:49:35;-11650.84;;;-142.29;41.61
7748;BME280;3918;42.564;23.164;2023-04-15T05:52:02;-11650.84;;;-142.29;40.96
7748;BME280;3918;42.564;23.164;2023-04-15T05:54:28;-11650.84;;;-142.29;40.00
7748;BME280;3918;42.564;23.164;2023-04-15T05:56:55;-11650.84;;;-142.29;39.57
7748;BME280;3918;42.564;23.164;2023-04-15T05:59:22;-11650.84;;;-142.29;39.33
7748;BME280;3918;42.564;23.164;2023-04-15T06:01:50;-11650.84;;;-142.29;40.16
7748;BME280;3918;42.564;23.164;2023-04-15T06:04:18;-11650.84;;;-142.29;39.29
7748;BME280;3918;42.564;23.164;2023-04-15T06:06:44;-11650.84;;;-142.29;39.61
7748;BME280;3918;42.564;23.164;2023-04-15T06:09:11;-11650.84;;;-142.29;39.12
7748;BME280;3918;42.564;23.164;2023-04-15T06:11:38;-11650.84;;;-142.29;38.27
7748;BME280;3918;42.564;23.164;2023-04-15T06:14:05;-11650.84;;;-142.29;37.43
7748;BME280;3918;42.564;23.164;2023-04-15T06:16:32;-11650.84;;;-142.29;37.33
7748;BME280;3918;42.564;23.164;2023-04-15T06:19:02;-11650.84;;;-142.29;37.82
7748;BME280;3918;42.564;23.164;2023-04-15T06:21:29;-11650.84;;;-142.29;37.74
7748;BME280;3918;42.564;23.164;2023-04-15T06:23:57;-11650.84;;;-142.29;38.12
7748;BME280;3918;42.564;23.164;2023-04-15T06:26:23;-11650.84;;;-142.29;37.38
7748;BME280;3918;42.564;23.164;2023-04-15T06:28:50;-11650.84;;;-142.29;36.55
7748;BME280;3918;42.564;23.164;2023-04-15T06:31:17;-11650.84;;;-142.29;36.45
7748;BME280;3918;42.564;23.164;2023-04-15T06:33:45;-11650.84;;;-142.29;37.14
7748;BME280;3918;42.564;23.164;2023-04-15T06:36:13;-11650.84;;;-142.29;38.71
7748;BME280;3918;42.564;23.164;2023-04-15T06:38:40;-11650.84;;;-142.29;38.73
7748;BME280;3918;42.564;23.164;2023-04-15T06:41:06;-11650.84;;;-142.29;38.55
7748;BME280;3918;42.564;23.164;2023-04-15T06:43:33;-11650.84;;;-142.29;38.74
7748;BME280;3918;42.564;23.164;2023-04-15T06:46:00;-11650.84;;;-142.29;39.52
7748;BME280;3918;42.564;23.164;2023-04-15T06:48:27;-11650.84;;;-142.29;39.22
7748;BME280;3918;42.564;23.164;2023-04-15T06:50:54;-11650.84;;;-142.29;38.55
7748;BME280;3918;42.564;23.164;2023-04-15T06:53:24;-11650.84;;;-142.29;37.22
7748;BME280;3918;42.564;23.164;2023-04-15T06:55:50;-11650.84;;;-142.29;36.66
7748;BME280;3918;42.564;23.164;2023-04-15T06:58:17;-11650.84;;;-142.29;36.46
7748;BME280;3918;42.564;23.164;2023-04-15T07:00:44;-11650.84;;;-142.29;35.50
7748;BME280;3918;42.564;23.164;2023-04-15T07:03:11;-11650.84;;;-142.29;35.41
7748;BME280;3918;42.564;23.164;2023-04-15T07:05:39;-11650.84;;;-142.29;36.38
7748;BME280;3918;42.564;23.164;2023-04-15T07:08:06;-11650.84;;;-142.29;37.41
7748;BME280;3918;42.564;23.164;2023-04-15T07:10:34;-11650.84;;;-142.29;37.20
7748;BME280;3918;42.564;23.164;2023-04-15T07:13:03;-11650.84;;;-142.29;36.58
7748;BME280;3918;42.564;23.164;2023-04-15T07:15:30;-11650.84;;;-142.29;37.50
7748;BME280;3918;42.564;23.164;2023-04-15T07:17:56;-11650.84;;;-142.29;38.15
7748;BME280;3918;42.564;23.164;2023-04-15T07:20:23;-11650.84;;;-142.29;36.81
7748;BME280;3918;42.564;23.164;2023-04-15T07:22:50;-11650.84;;;-142.29;38.33
7748;BME280;3918;42.564;23.164;2023-04-15T07:25:17;-11650.84;;;-142.29;37.48
7748;BME280;3918;42.564;23.164;2023-04-15T07:27:45;-11650.84;;;-142.29;37.74
7748;BME280;3918;42.564;23.164;2023-04-15T07:30:12;-11650.84;;;-142.29;37.54
7748;BME280;3918;42.564;23.164;2023-04-15T07:32:39;-11650.84;;;-142.29;38.28
7748;BME280;3918;42.564;23.164;2023-04-15T07:35:06;-11650.84;;;-142.29;37.93
7748;BME280;3918;42.564;23.164;2023-04-15T07:37:34;-11650.84;;;-142.29;37.88
7748;BME280;3918;42.564;23.164;2023-04-15T07:40:00;-11650.84;;;-142.29;39.06
7748;BME280;3918;42.564;23.164;2023-04-15T07:42:29;-11650.84;;;-142.29;38.94
7748;BME280;3918;42.564;23.164;2023-04-15T07:44:57;-11650.84;;;-142.29;38.89
7748;BME280;3918;42.564;23.164;2023-04-15T07:47:23;-11650.84;;;-142.29;38.96
7748;BME280;3918;42.564;23.164;2023-04-15T07:49:51;-11650.84;;;-142.29;37.84
7748;BME280;3918;42.564;23.164;2023-04-15T07:52:18;-11650.84;;;-142.29;36.62
7748;BME280;3918;42.564;23.164;2023-04-15T07:54:44;-11650.84;;;-142.29;36.75
7748;BME280;3918;42.564;23.164;2023-04-15T07:57:11;-11650.84;;;-142.29;37.95
7748;BME280;3918;42.564;23.164;2023-04-15T07:59:38;-11650.84;;;-142.29;38.02
7748;BME280;3918;42.564;23.164;2023-04-15T08:02:06;-11650.84;;;-142.29;37.97
7748;BME280;3918;42.564;23.164;2023-04-15T08:04:34;-11650.84;;;-142.29;37.37
7748;BME280;3918;42.564;23.164;2023-04-15T08:07:00;-11650.84;;;-142.29;37.85
7748;BME280;3918;42.564;23.164;2023-04-15T08:09:27;-11650.84;;;-142.29;37.52
7748;BME280;3918;42.564;23.164;2023-04-15T08:11:54;-11650.84;;;-142.29;38.09
7748;BME280;3918;42.564;23.164;2023-04-15T08:14:21;-11650.84;;;-142.29;37.22
7748;BME280;3918;42.564;23.164;2023-04-15T08:16:48;-11650.84;;;-142.29;37.51
7748;BME280;3918;42.564;23.164;2023-04-15T08:19:16;-11650.84;;;-142.29;38.34
7748;BME280;3918;42.564;23.164;2023-04-15T08:21:43;-11650.84;;;-142.29;36.83
7748;BME280;3918;42.564;23.164;2023-04-15T08:24:10;-11650.84;;;-142.29;35.97
7748;BME280;3918;42.564;23.164;2023-04-15T08:26:37;-11650.84;;;-142.29;38.01
7748;BME280;3918;42.564;23.164;2023-04-15T08:29:04;-11650.84;;;-142.29;35.83
7748;BME280;3918;42.564;23.164;2023-04-15T08:31:30;-11650.84;;;-142.29;35.13
7748;BME280;3918;42.564;23.164;2023-04-15T08:33:57;-11650.84;;;-142.29;35.11
7748;BME280;3918;42.564;23.164;2023-04-15T08:36:26;-11650.84;;;-142.29;35.47
7748;BME280;3918;42.564;23.164;2023-04-15T08:38:52;-11650.84;;;-142.29;35.98
7748;BME280;3918;42.564;23.164;2023-04-15T08:41:20;-11650.84;;;-142.29;37.31
7748;BME280;3918;42.564;23.164;2023-04-15T08:43:52;-11650.84;;;-142.29;37.79
7748;BME280;3918;42.564;23.164;2023-04-15T08:46:20;-11650.84;;;-142.29;38.11
7748;BME280;3918;42.564;23.164;2023-04-15T08:48:48;-11650.84;;;-142.29;37.77
7748;BME280;3918;42.564;23.164;2023-04-15T08:51:16;-11650.84;;;-142.29;39.41
7748;BME280;3918;42.564;23.164;2023-04-15T08:53:44;-11650.84;;;-142.29;39.69
7748;BME280;3918;42.564;23.164;2023-04-15T08:56:14;-11650.84;;;-142.29;38.97
7748;BME280;3918;42.564;23.164;2023-04-15T08:58:42;-11650.84;;;-142.29;38.25
7748;BME280;3918;42.564;23.164;2023-04-15T09:01:11;-11650.84;;;-142.29;37.68
7748;BME280;3918;42.564;23.164;2023-04-15T09:03:38;-11650.84;;;-142.29;39.40
7748;BME280;3918;42.564;23.164;2023-04-15T09:06:05;-11650.84;;;-142.29;37.74
7748;BME280;3918;42.564;23.164;2023-04-15T09:08:32;-11650.84;;;-142.29;36.92
7748;BME280;3918;42.564;23.164;2023-04-15T09:11:01;-11650.84;;;-142.29;36.92
7748;BME280;3918;42.564;23.164;2023-04-15T09:13:28;-11650.84;;;-142.29;38.20
7748;BME280;3918;42.564;23.164;2023-04-15T09:15:55;-11650.84;;;-142.29;37.36
7748;BME280;3918;42.564;23.164;2023-04-15T09:18:29;-11650.84;;;-142.29;36.93
7748;BME280;3918;42.564;23.164;2023-04-15T09:21:03;-11650.84;;;-142.29;37.91
7748;BME280;3918;42.564;23.164;2023-04-15T09:23:31;-11650.84;;;-142.29;39.06
7748;BME280;3918;42.564;23.164;2023-04-15T09:25:58;-11650.84;;;-142.29;39.57
7748;BME280;3918;42.564;23.164;2023-04-15T09:28:27;-11650.84;;;-142.29;38.33
7748;BME280;3918;42.564;23.164;2023-04-15T09:30:56;-11650.84;;;-142.29;39.20
7748;BME280;3918;42.564;23.164;2023-04-15T09:33:24;-11650.84;;;-142.29;39.24
7748;BME280;3918;42.564;23.164;2023-04-15T09:35:59;-11650.84;;;-142.29;40.25
7748;BME280;3918;42.564;23.164;2023-04-15T09:38:26;-11650.84;;;-142.29;40.27
7748;BME280;3918;42.564;23.164;2023-04-15T09:40:53;-11650.84;;;-142.29;40.72
7748;BME280;3918;42.564;23.164;2023-04-15T09:43:20;-11650.84;;;-142.29;41.38
7748;BME280;3918;42.564;23.164;2023-04-15T09:45:50;-11650.84;;;-142.29;41.07
7748;BME280;3918;42.564;23.164;2023-04-15T09:48:19;-11650.84;;;-142.29;41.44
7748;BME280;3918;42.564;23.164;2023-04-15T09:50:47;-11650.84;;;-142.29;40.72
7748;BME280;3918;42.564;23.164;2023-04-15T09:53:18;-11650.84;;;-142.29;39.95
7748;BME280;3918;42.564;23.164;2023-04-15T09:55:48;-11650.84;;;-142.29;40.40
7748;BME280;3918;42.564;23.164;2023-04-15T09:58:19;-11650.84;;;-142.29;40.15
7748;BME280;3918;42.564;23.164;2023-04-15T10:00:49;-11650.84;;;-142.29;39.42
7748;BME280;3918;42.564;23.164;2023-04-15T10:03:18;-11650.84;;;-142.29;40.93
7748;BME280;3918;42.564;23.164;2023-04-15T10:05:47;-11650.84;;;-142.29;40.24
7748;BME280;3918;42.564;23.164;2023-04-15T10:08:16;-11650.84;;;-142.29;41.17
7748;BME280;3918;42.564;23.164;2023-04-15T10:10:44;-11650.84;;;-142.29;41.60
7748;BME280;3918;42.564;23.164;2023-04-15T10:13:12;-11650.84;;;-142.29;40.65
7748;BME280;3918;42.564;23.164;2023-04-15T10:15:42;-11650.84;;;-142.29;40.12
7748;BME280;3918;42.564;23.164;2023-04-15T10:18:12;-11650.84;;;-142.29;41.64
7748;BME280;3918;42.564;23.164;2023-04-15T10:20:41;-11650.84;;;-142.29;41.64
7748;BME280;3918;42.564;23.164;2023-04-15T10:23:08;-11650.84;;;-142.29;40.39
7748;BME280;3918;42.564;23.164;2023-04-15T10:25:36;-11650.84;;;-142.29;40.17
7748;BME280;3918;42.564;23.164;2023-04-15T10:28:05;-11650.84;;;-142.29;42.02
7748;BME280;3918;42.564;23.164;2023-04-15T10:30:32;-11650.84;;;-142.29;42.35
7748;BME280;3918;42.564;23.164;2023-04-15T10:32:59;-11650.84;;;-142.29;41.02
7748;BME280;3918;42.564;23.164;2023-04-15T10:35:29;-11650.84;;;-142.29;41.84
7748;BME280;3918;42.564;23.164;2023-04-15T10:37:57;-11650.84;;;-142.29;41.64
7748;BME280;3918;42.564;23.164;2023-04-15T10:40:28;-11650.84;;;-142.29;41.60
7748;BME280;3918;42.564;23.164;2023-04-15T10:42:56;-11650.84;;;-142.29;41.69
7748;BME280;3918;42.564;23.164;2023-04-15T10:45:25;-11650.84;;;-142.29;41.54
7748;BME280;3918;42.564;23.164;2023-04-15T10:47:54;-11650.84;;;-142.29;40.32
7748;BME280;3918;42.564;23.164;2023-04-15T10:50:24;-11650.84;;;-142.29;41.33
7748;BME280;3918;42.564;23.164;2023-04-15T10:52:54;-11650.84;;;-142.29;41.16
7748;BME280;3918;42.564;23.164;2023-04-15T10:55:22;-11650.84;;;-142.29;42.07
7748;BME280;3918;42.564;23.164;2023-04-15T10:57:53;-11650.84;;;-142.29;40.35
7748;BME280;3918;42.564;23.164;2023-04-15T11:00:24;-11650.84;;;-142.29;40.00
7748;BME280;3918;42.564;23.164;2023-04-15T11:02:52;-11650.84;;;-142.29;38.39
7748;BME280;3918;42.564;23.164;2023-04-15T11:05:21;-11650.84;;;-142.29;39.88
7748;BME280;3918;42.564;23.164;2023-04-15T11:07:54;-11650.84;;;-142.29;39.93
7748;BME280;3918;42.564;23.164;2023-04-15T11:10:52;-11650.84;;;-142.29;41.21
7748;BME280;3918;42.564;23.164;2023-04-15T11:13:28;-11650.84;;;-142.29;40.59
7748;BME280;3918;42.564;23.164;2023-04-15T11:16:00;-11650.84;;;-142.29;40.81
7748;BME280;3918;42.564;23.164;2023-04-15T11:18:29;-11650.84;;;-142.29;39.25
7748;BME280;3918;42.564;23.164;2023-04-15T11:20:58;-11650.84;;;-142.29;39.47
7748;BME280;3918;42.564;23.164;2023-04-15T11:23:31;-11650.84;;;-142.29;39.53
7748;BME280;3918;42.564;23.164;2023-04-15T11:25:59;-11650.84;;;-142.29;39.67
7748;BME280;3918;42.564;23.164;2023-04-15T11:28:27;-11650.84;;;-142.29;39.58
7748;BME280;3918;42.564;23.164;2023-04-15T11:30:54;-11650.84;;;-142.29;39.05
7748;BME280;3918;42.564;23.164;2023-04-15T11:33:21;-11650.84;;;-142.29;38.64
7748;BME280;3918;42.564;23.164;2023-04-15T11:35:49;-11650.84;;;-142.29;39.38
7748;BME280;3918;42.564;23.164;2023-04-15T11:38:17;-11650.84;;;-142.29;39.17
7748;BME280;3918;42.564;23.164;2023-04-15T11:40:45;-11650.84;;;-142.29;39.36
7748;BME280;3918;42.564;23.164;2023-04-15T11:43:13;-11650.84;;;-142.29;38.79
7748;BME280;3918;42.564;23.164;2023-04-15T11:45:49;-11650.84;;;-142.29;39.49
7748;BME280;3918;42.564;23.164;2023-04-15T11:48:17;-11650.84;;;-142.29;39.36
7748;BME280;3918;42.564;23.164;2023-04-15T11:50:44;-11650.84;;;-142.29;39.63
7748;BME280;3918;42.564;23.164;2023-04-15T11:53:12;-11650.84;;;-142.29;39.51
7748;BME280;3918;42.564;23.164;2023-04-15T11:55:43;-11650.84;;;-142.29;39.47
7748;BME280;3918;42.564;23.164;2023-04-15T11:58:14;-11650.84;;;-142.29;39.25
7748;BME280;3918;42.564;23.164;2023-04-15T12:00:45;-11650.84;;;-142.29;39.05
7748;BME280;3918;42.564;23.164;2023-04-15T12:03:22;-11650.84;;;-142.29;38.81
7748;BME280;3918;42.564;23.164;2023-04-15T12:06:09;-11650.84;;;-142.29;38.58
7748;BME280;3918;42.564;23.164;2023-04-15T12:09:00;-11650.84;;;-142.29;38.61
7748;BME280;3918;42.564;23.164;2023-04-15T12:11:29;-11650.84;;;-142.29;37.10
7748;BME280;3918;42.564;23.164;2023-04-15T12:14:01;-11650.84;;;-142.29;37.71
7748;BME280;3918;42.564;23.164;2023-04-15T12:16:29;-11650.84;;;-142.29;37.04
7748;BME280;3918;42.564;23.164;2023-04-15T12:19:00;-11650.84;;;-142.29;37.95
7748;BME280;3918;42.564;23.164;2023-04-15T12:21:33;-11650.84;;;-142.29;37.06
7748;BME280;3918;42.564;23.164;2023-04-15T12:24:01;-11650.84;;;-142.29;36.82
7748;BME280;3918;42.564;23.164;2023-04-15T12:26:32;-11650.84;;;-142.29;37.51
7748;BME280;3918;42.564;23.164;2023-04-15T12:29:01;-11650.84;;;-142.29;37.70
7748;BME280;3918;42.564;23.164;2023-04-15T12:31:29;-11650.84;;;-142.29;37.17
7748;BME280;3918;42.564;23.164;2023-04-15T12:33:55;-11650.84;;;-142.29;38.11
7748;BME280;3918;42.564;23.164;2023-04-15T12:36:23;-11650.84;;;-142.29;38.03
7748;BME280;3918;42.564;23.164;2023-04-15T12:38:49;-11650.84;;;-142.29;38.09
7748;BME280;3918;42.564;23.164;2023-04-15T12:41:16;-11650.84;;;-142.29;38.66
7748;BME280;3918;42.564;23.164;2023-04-15T12:43:43;-11650.84;;;-142.29;39.30
7748;BME280;3918;42.564;23.164;2023-04-15T12:46:12;-11650.84;;;-142.29;38.74
7748;BME280;3918;42.564;23.164;2023-04-15T12:48:39;-11650.84;;;-142.29;38.36
7748;BME280;3918;42.564;23.164;2023-04-15T12:51:06;-11650.84;;;-142.29;39.04
7748;BME280;3918;42.564;23.164;2023-04-15T12:53:33;-11650.84;;;-142.29;38.40
7748;BME280;3918;42.564;23.164;2023-04-15T12:56:00;-11650.84;;;-142.29;38.70
7748;BME280;3918;42.564;23.164;2023-04-15T12:58:26;-11650.84;;;-142.29;39.13
7748;BME280;3918;42.564;23.164;2023-04-15T13:00:53;-11650.84;;;-142.29;38.92
7748;BME280;3918;42.564;23.164;2023-04-15T13:03:22;-11650.84;;;-142.29;37.76
7748;BME280;3918;42.564;23.164;2023-04-15T13:05:49;-11650.84;;;-142.29;37.46
7748;BME280;3918;42.564;23.164;2023-04-15T13:08:16;-11650.84;;;-142.29;37.76
7748;BME280;3918;42.564;23.164;2023-04-15T13:10:43;-11650.84;;;-142.29;37.86
7748;BME280;3918;42.564;23.164;2023-04-15T13:13:10;-11650.84;;;-142.29;38.68
7748;BME280;3918;42.564;23.164;2023-04-15T13:15:37;-11650.84;;;-142.29;38.50
7748;BME280;3918;42.564;23.164;2023-04-15T13:18:05;-11650.84;;;-142.29;38.03
7748;BME280;3918;42.564;23.164;2023-04-15T13:20:33;-11650.84;;;-142.29;37.96
7748;BME280;3918;42.564;23.164;2023-04-15T13:23:00;-11650.84;;;-142.29;37.46
7748;BME280;3918;42.564;23.164;2023-04-15T13:25:27;-11650.84;;;-142.29;37.66
7748;BME280;3918;42.564;23.164;2023-04-15T13:27:54;-11650.84;;;-142.29;38.58
7748;BME280;3918;42.564;23.164;2023-04-15T13:30:21;-11650.84;;;-142.29;37.59
7748;BME280;3918;42.564;23.164;2023-04-15T13:32:49;-11650.84;;;-142.29;37.51
7748;BME280;3918;42.564;23.164;2023-04-15T13:35:16;-11650.84;;;-142.29;37.57
7748;BME280;3918;42.564;23.164;2023-04-15T13:37:44;-11650.84;;;-142.29;37.95
7748;BME280;3918;42.564;23.164;2023-04-15T13:40:11;-11650.84;;;-142.29;36.93
7748;BME280;3918;42.564;23.164;2023-04-15T13:42:37;-11650.84;;;-142.29;37.60
7748;BME280;3918;42.564;23.164;2023-04-15T13:45:06;-11650.84;;;-142.29;37.42
7748;BME280;3918;42.564;23.164;2023-04-15T13:47:33;-11650.84;;;-142.29;37.56
7748;BME280;3918;42.564;23.164;2023-04-15T13:50:00;-11650.84;;;-142.29;37.13
7748;BME280;3918;42.564;23.164;2023-04-15T13:52:26;-11650.84;;;-142.29;37.78
7748;BME280;3918;42.564;23.164;2023-04-15T13:54:54;-11650.84;;;-142.29;36.85
7748;BME280;3918;42.564;23.164;2023-04-15T13:57:21;-11650.84;;;-142.29;37.28
7748;BME280;3918;42.564;23.164;2023-04-15T13:59:48;-11650.84;;;-142.29;37.07
7748;BME280;3918;42.564;23.164;2023-04-15T14:02:15;-11650.84;;;-142.29;37.05
7748;BME280;3918;42.564;23.164;2023-04-15T14:04:41;-11650.84;;;-142.29;36.92
7748;BME280;3918;42.564;23.164;2023-04-15T14:07:08;-11650.84;;;-142.29;37.25
7748;BME280;3918;42.564;23.164;2023-04-15T14:09:35;-11650.84;;;-142.29;37.28
7748;BME280;3918;42.564;23.164;2023-04-15T14:12:03;-11650.84;;;-142.29;37.78
7748;BME280;3918;42.564;23.164;2023-04-15T14:14:30;-11650.84;;;-142.29;37.79
7748;BME280;3918;42.564;23.164;2023-04-15T14:16:57;-11650.84;;;-142.29;38.08
7748;BME280;3918;42.564;23.164;2023-04-15T14:19:24;-11650.84;;;-142.29;38.14
7748;BME280;3918;42.564;23.164;2023-04-15T14:21:51;-11650.84;;;-142.29;37.09
7748;BME280;3918;42.564;23.164;2023-04-15T14:24:17;-11650.84;;;-142.29;37.93
7748;BME280;3918;42.564;23.164;2023-04-15T14:26:44;-11650.84;;;-142.29;37.76
7748;BME280;3918;42.564;23.164;2023-04-15T14:29:12;-11650.84;;;-142.29;38.04
7748;BME280;3918;42.564;23.164;2023-04-15T14:31:39;-11650.84;;;-142.29;37.41
7748;BME280;3918;42.564;23.164;2023-04-15T14:34:06;-11650.84;;;-142.29;37.75
7748;BME280;3918;42.564;23.164;2023-04-15T14:36:33;-11650.84;;;-142.29;38.09
7748;BME280;3918;42.564;23.164;2023-04-15T14:39:00;-11650.84;;;-142.29;37.73
7748;BME280;3918;42.564;23.164;2023-04-15T14:41:26;-11650.84;;;-142.29;37.78
7748;BME280;3918;42.564;23.164;2023-04-15T14:43:53;-11650.84;;;-142.29;38.27
7748;BME280;3918;42.564;23.164;2023-04-15T14:46:22;-11650.84;;;-142.29;37.81
7748;BME280;3918;42.564;23.164;2023-04-15T14:48:49;-11650.84;;;-142.29;38.04
7748;BME280;3918;42.564;23.164;2023-04-15T14:51:15;-11650.84;;;-142.29;37.78
7748;BME280;3918;42.564;23.164;2023-04-15T14:53:42;-11650.84;;;-142.29;37.84
7748;BME280;3918;42.564;23.164;2023-04-15T14:56:09;-11650.84;;;-142.29;38.04
7748;BME280;3918;42.564;23.164;2023-04-15T14:58:36;-11650.84;;;-142.29;37.68
7748;BME280;3918;42.564;23.164;2023-04-15T15:01:03;-11650.84;;;-142.29;38.06
7748;BME280;3918;42.564;23.164;2023-04-15T15:03:32;-11650.84;;;-142.29;38.17
7748;BME280;3918;42.564;23.164;2023-04-15T15:05:59;-11650.84;;;-142.29;38.83
7748;BME280;3918;42.564;23.164;2023-04-15T15:08:25;-11650.84;;;-142.29;38.62
7748;BME280;3918;42.564;23.164;2023-04-15T15:10:52;-11650.84;;;-142.29;38.24
7748;BME280;3918;42.564;23.164;2023-04-15T15:13:19;-11650.84;;;-142.29;38.55
7748;BME280;3918;42.564;23.164;2023-04-15T15:15:46;-11650.84;;;-142.29;38.54
7748;BME280;3918;42.564;23.164;2023-04-15T15:18:14;-11650.84;;;-142.29;38.12
7748;BME280;3918;42.564;23.164;2023-04-15T15:20:44;-11650.84;;;-142.29;38.60
7748;BME280;3918;42.564;23.164;2023-04-15T15:23:11;-11650.84;;;-142.29;38.82
7748;BME280;3918;42.564;23.164;2023-04-15T15:25:37;-11650.84;;;-142.29;39.40
7748;BME280;3918;42.564;23.164;2023-04-15T15:28:05;-11650.84;;;-142.29;39.22
7748;BME280;3918;42.564;23.164;2023-04-15T15:30:32;-11650.84;;;-142.29;38.94
7748;BME280;3918;42.564;23.164;2023-04-15T15:32:58;-11650.84;;;-142.29;39.63
7748;BME280;3918;42.564;23.164;2023-04-15T15:35:25;-11650.84;;;-142.29;39.17
7748;BME280;3918;42.564;23.164;2023-04-15T15:37:53;-11650.84;;;-142.29;39.82
7748;BME280;3918;42.564;23.164;2023-04-15T15:40:20;-11650.84;;;-142.29;39.39
7748;BME280;3918;42.564;23.164;2023-04-15T15:42:47;-11650.84;;;-142.29;39.65
7748;BME280;3918;42.564;23.164;2023-04-15T15:45:15;-11650.84;;;-142.29;39.60
7748;BME280;3918;42.564;23.164;2023-04-15T15:47:42;-11650.84;;;-142.29;39.84
7748;BME280;3918;42.564;23.164;2023-04-15T15:50:09;-11650.84;;;-142.29;40.07
7748;BME280;3918;42.564;23.164;2023-04-15T15:52:36;-11650.84;;;-142.29;40.47
7748;BME280;3918;42.564;23.164;2023-04-15T15:55:05;-11650.84;;;-142.29;40.79
7748;BME280;3918;42.564;23.164;2023-04-15T15:57:31;-11650.84;;;-142.29;40.60
7748;BME280;3918;42.564;23.164;2023-04-15T15:59:58;-11650.84;;;-142.29;41.08
7748;BME280;3918;42.564;23.164;2023-04-15T16:02:25;-11650.84;;;-142.29;40.91
7748;BME280;3918;42.564;23.164;2023-04-15T16:04:52;-11650.84;;;-142.29;40.82
7748;BME280;3918;42.564;23.164;2023-04-15T16:07:18;-11650.84;;;-142.29;41.10
7748;BME280;3918;42.564;23.164;2023-04-15T16:09:45;-11650.84;;;-142.29;41.56
7748;BME280;3918;42.564;23.164;2023-04-15T16:12:13;-11650.84;;;-142.29;41.68
7748;BME280;3918;42.564;23.164;2023-04-15T16:14:40;-11650.84;;;-142.29;41.64
7748;BME280;3918;42.564;23.164;2023-04-15T16:17:08;-11650.84;;;-142.29;42.24
7748;BME280;3918;42.564;23.164;2023-04-15T16:19:35;-11650.84;;;-142.29;41.75
7748;BME280;3918;42.564;23.164;2023-04-15T16:22:01;-11650.84;;;-142.29;42.48
7748;BME280;3918;42.564;23.164;2023-04-15T16:24:28;-11650.84;;;-142.29;43.05
7748;BME280;3918;42.564;23.164;2023-04-15T16:26:55;-11650.84;;;-142.29;43.45
7748;BME280;3918;42.564;23.164;2023-04-15T16:29:25;-11650.84;;;-142.29;43.21
7748;BME280;3918;42.564;23.164;2023-04-15T16:31:51;-11650.84;;;-142.29;42.78
7748;BME280;3918;42.564;23.164;2023-04-15T16:34:18;-11650.84;;;-142.29;43.38
7748;BME280;3918;42.564;23.164;2023-04-15T16:36:45;-11650.84;;;-142.29;43.42
7748;BME280;3918;42.564;23.164;2023-04-15T16:39:12;-11650.84;;;-142.29;43.29
7748;BME280;3918;42.564;23.164;2023-04-15T16:41:38;-11650.84;;;-142.29;43.17
7748;BME280;3918;42.564;23.164;2023-04-15T16:44:07;-11650.84;;;-142.29;43.18